Time;durP1;ratioP1;P1;durP2;ratioP2;P2;SDS_P1;SDS_P2;PMS_P1;PMS_P2;Temp;Humidity;BMP_temperature;BMP_pressure;BME280_temperature;BME280_humidity;BME280_pressure;Samples;Min_cycle;Max_cycle;Signal;HPM_P1;HPM_P2
2021/10/04 00:00:52;;;;;;;0.20;0.20;;;;;;;11.36;97.08;100596.88;5032192;28;20041;-80
2021/10/04 00:03:20;;;;;;;0.20;0.20;;;;;;;11.36;96.71;100603.13;5013519;28;20057;-81
2021/10/04 00:05:55;;;;;;;0.10;0.10;;;;;;;11.26;95.57;100597.00;5013512;28;20060;-81
2021/10/04 00:08:23;;;;;;;0.20;0.20;;;;;;;11.34;97.15;100610.00;5031940;28;20040;-81
2021/10/04 00:10:56;;;;;;;0.20;0.20;;;;;;;11.21;97.72;100606.84;5026267;28;20054;-80
2021/10/04 00:13:30;;;;;;;0.10;0.10;;;;;;;11.29;98.29;100607.31;5011142;28;20042;-81
2021/10/04 00:15:58;;;;;;;0.20;0.20;;;;;;;11.21;97.67;100622.34;5012709;28;20038;-81
2021/10/04 00:18:32;;;;;;;0.20;0.20;;;;;;;11.29;98.48;100627.19;5020527;28;20038;-81
2021/10/04 00:21:01;;;;;;;0.20;0.20;;;;;;;11.31;98.38;100624.16;5014373;28;20133;-81
2021/10/04 00:23:30;;;;;;;0.20;0.20;;;;;;;11.18;98.30;100609.31;5032189;28;20049;-81
2021/10/04 00:25:58;;;;;;;0.20;0.20;;;;;;;11.17;98.64;100618.56;5030729;28;20072;-80
2021/10/04 00:28:26;;;;;;;0.20;0.20;;;;;;;11.25;99.64;100636.22;5029950;28;20042;-81
2021/10/04 00:30:54;;;;;;;0.20;0.20;;;;;;;11.19;99.46;100644.44;5014053;28;20049;-81
2021/10/04 00:33:27;;;;;;;0.20;0.20;;;;;;;11.21;99.57;100653.13;5013318;28;20046;-81
2021/10/04 00:36:02;;;;;;;0.20;0.20;;;;;;;11.10;98.98;100642.59;5032083;28;20056;-81
2021/10/04 00:38:35;;;;;;;0.10;0.10;;;;;;;11.21;98.68;100650.41;5027966;28;20045;-81
2021/10/04 00:41:08;;;;;;;0.20;0.20;;;;;;;11.10;98.61;100640.69;5017909;28;20060;-81
2021/10/04 00:43:37;;;;;;;0.17;0.17;;;;;;;11.13;99.45;100652.91;5033669;28;20045;-80
2021/10/04 00:46:10;;;;;;;0.20;0.20;;;;;;;11.14;99.74;100662.72;5017864;28;20053;-81
2021/10/04 00:48:45;;;;;;;0.20;0.20;;;;;;;11.11;99.16;100661.38;5017316;28;20053;-81
2021/10/04 00:51:20;;;;;;;0.13;0.13;;;;;;;11.06;100.00;100675.84;5018208;28;20045;-83
2021/10/04 00:53:55;;;;;;;0.20;0.20;;;;;;;11.10;99.02;100684.25;5035758;28;20042;-81
2021/10/04 00:56:29;;;;;;;0.20;0.20;;;;;;;11.17;97.50;100675.75;5017139;28;20045;-81
2021/10/04 00:58:57;;;;;;;0.20;0.20;;;;;;;11.12;98.78;100679.34;5016072;28;20053;-81
2021/10/04 01:01:31;;;;;;;0.20;0.20;;;;;;;11.04;99.33;100666.34;5017438;28;20053;-81
2021/10/04 01:04:05;;;;;;;0.20;0.20;;;;;;;10.96;99.56;100669.66;5030580;28;20045;-81
2021/10/04 01:06:35;;;;;;;0.20;0.20;;;;;;;10.94;99.86;100667.22;5017026;28;20052;-81
2021/10/04 01:09:08;;;;;;;0.10;0.10;;;;;;;10.92;99.78;100671.31;5028937;28;20042;-82
2021/10/04 01:12:13;;;;;;;0.20;0.20;;;;;;;10.87;99.83;100674.91;5009975;28;20054;-81
2021/10/04 01:14:46;;;;;;;0.17;0.17;;;;;;;10.77;99.23;100678.50;5026690;28;20064;-82
2021/10/04 01:17:23;;;;;;;0.20;0.20;;;;;;;10.75;99.73;100691.56;5016803;28;20052;-80
2021/10/04 01:19:57;;;;;;;0.20;0.20;;;;;;;10.65;100.00;100706.03;5001379;28;20049;-81
2021/10/04 01:22:26;;;;;;;0.20;0.20;;;;;;;10.65;100.00;100710.69;5015796;28;20387;-81
2021/10/04 01:24:55;;;;;;;0.20;0.20;;;;;;;10.60;100.00;100713.41;5016154;28;20054;-81
2021/10/04 01:27:28;;;;;;;0.20;0.20;;;;;;;10.55;100.00;100708.81;5034549;28;20052;-81
2021/10/04 01:30:01;;;;;;;0.20;0.20;;;;;;;10.58;100.00;100718.31;5015970;28;20101;-81
2021/10/04 01:32:37;;;;;;;0.10;0.10;;;;;;;10.48;100.00;100717.28;5016278;28;20060;-81
2021/10/04 01:35:11;;;;;;;0.20;0.20;;;;;;;10.37;100.00;100711.06;5017029;28;20056;-81
2021/10/04 01:37:41;;;;;;;0.20;0.20;;;;;;;10.36;100.00;100712.13;5017223;28;20049;-81
2021/10/04 01:40:16;;;;;;;0.20;0.20;;;;;;;10.30;100.00;100705.06;5016577;28;20517;-82
2021/10/04 01:42:44;;;;;;;0.10;0.10;;;;;;;10.31;100.00;100724.91;5016152;28;20049;-81
2021/10/04 01:45:23;;;;;;;0.13;0.13;;;;;;;10.13;100.00;100715.44;5016313;28;20050;-81
2021/10/04 01:47:59;;;;;;;0.20;0.20;;;;;;;10.14;100.00;100720.59;5031155;28;20494;-81
2021/10/04 01:50:31;;;;;;;0.20;0.20;;;;;;;10.15;100.00;100729.56;5021332;28;20038;-81
2021/10/04 01:53:01;;;;;;;0.20;0.20;;;;;;;10.14;100.00;100731.50;5015798;28;20049;-81
2021/10/04 01:55:35;;;;;;;0.30;0.30;;;;;;;10.09;100.00;100728.78;5033455;28;20037;-82
2021/10/04 01:58:08;;;;;;;0.20;0.20;;;;;;;10.08;100.00;100746.19;5028916;28;20046;-81
2021/10/04 02:00:38;;;;;;;0.20;0.20;;;;;;;10.08;100.00;100742.63;5029407;28;20053;-81
2021/10/04 02:03:12;;;;;;;0.10;0.10;;;;;;;9.97;100.00;100714.66;5012501;28;20049;-82
2021/10/04 02:05:45;;;;;;;0.20;0.20;;;;;;;10.04;100.00;100742.41;5027461;28;20053;-82
2021/10/04 02:08:20;;;;;;;0.20;0.20;;;;;;;9.98;100.00;100748.91;5016274;28;20057;-81
2021/10/04 02:10:53;;;;;;;0.52;0.30;;;;;;;10.09;100.00;100755.16;5016415;28;20045;-82
2021/10/04 02:13:24;;;;;;;0.20;0.20;;;;;;;10.02;100.00;100758.97;5016063;28;20062;-81
2021/10/04 02:15:57;;;;;;;0.20;0.20;;;;;;;10.01;100.00;100753.78;5016127;28;20061;-82
2021/10/04 02:18:31;;;;;;;0.10;0.10;;;;;;;10.03;100.00;100768.75;5034185;28;20046;-81
2021/10/04 02:21:04;;;;;;;0.20;0.20;;;;;;;9.98;100.00;100778.81;5022088;28;20433;-81
2021/10/04 02:23:39;;;;;;;0.20;0.20;;;;;;;10.02;100.00;100782.63;5014381;28;20050;-81
2021/10/04 02:26:07;;;;;;;0.20;0.20;;;;;;;10.07;100.00;100785.34;5014268;28;20053;-81
2021/10/04 02:28:40;;;;;;;0.20;0.20;;;;;;;10.07;100.00;100784.50;5013047;28;20060;-81
2021/10/04 02:31:13;;;;;;;0.20;0.20;;;;;;;10.09;100.00;100794.03;5022692;28;20037;-81
2021/10/04 02:33:47;;;;;;;0.20;0.20;;;;;;;10.04;100.00;100794.88;5034419;28;20064;-81
2021/10/04 02:36:23;;;;;;;0.20;0.20;;;;;;;10.10;100.00;100795.66;5033978;28;20068;-82
2021/10/04 02:38:53;;;;;;;0.17;0.17;;;;;;;10.10;100.00;100798.38;5015058;28;20393;-81
2021/10/04 02:41:22;;;;;;;0.15;0.15;;;;;;;10.08;100.00;100803.31;5028116;28;20053;-81
2021/10/04 02:43:56;;;;;;;0.20;0.20;;;;;;;10.01;100.00;100803.56;5033023;28;20053;-81
2021/10/04 02:46:30;;;;;;;0.20;0.20;;;;;;;10.00;100.00;100792.97;5014731;28;20046;-81
2021/10/04 02:49:03;;;;;;;0.20;0.20;;;;;;;9.97;100.00;100799.78;5014008;28;20084;-81
2021/10/04 02:51:32;;;;;;;0.10;0.10;;;;;;;9.92;100.00;100802.47;5015467;28;20053;-82
2021/10/04 02:54:02;;;;;;;0.35;0.20;;;;;;;9.94;100.00;100785.88;5031950;28;20473;-81
2021/10/04 02:56:35;;;;;;;0.20;0.20;;;;;;;9.83;100.00;100755.19;5033622;28;20046;-81
2021/10/04 02:59:11;;;;;;;0.20;0.20;;;;;;;9.94;100.00;100775.03;5033468;28;20046;-82
2021/10/04 03:01:39;;;;;;;0.20;0.20;;;;;;;9.94;100.00;100791.34;5013480;28;20049;-81
2021/10/04 03:04:20;;;;;;;0.20;0.20;;;;;;;9.96;100.00;100792.69;5015079;28;20053;-81
2021/10/04 03:06:48;;;;;;;0.20;0.20;;;;;;;9.95;100.00;100787.53;5032806;28;20049;-81
2021/10/04 03:09:23;;;;;;;0.15;0.15;;;;;;;9.96;100.00;100798.13;5015966;28;20080;-81
2021/10/04 03:11:56;;;;;;;0.20;0.20;;;;;;;9.85;100.00;100778.28;5014484;28;20057;-81
2021/10/04 03:14:24;;;;;;;0.30;0.20;;;;;;;9.87;100.00;100781.56;5012260;28;20053;-81
2021/10/04 03:16:58;;;;;;;0.10;0.10;;;;;;;9.93;100.00;100795.13;5015317;28;20416;-81
2021/10/04 03:19:31;;;;;;;0.10;0.10;;;;;;;9.93;100.00;100795.97;5014907;28;20049;-81
2021/10/04 03:22:26;;;;;;;0.13;0.13;;;;;;;9.92;100.00;100799.75;5012212;28;20050;-81
2021/10/04 03:25:00;;;;;;;0.20;0.20;;;;;;;9.85;100.00;100800.03;5006836;28;20049;-81
2021/10/04 03:27:34;;;;;;;0.20;0.20;;;;;;;9.85;100.00;100805.47;5027382;28;20049;-81
2021/10/04 03:30:09;;;;;;;0.10;0.10;;;;;;;9.81;100.00;100800.84;5026696;28;20395;-83
2021/10/04 03:32:46;;;;;;;0.13;0.13;;;;;;;9.90;100.00;100809.28;5014437;28;20071;-81
2021/10/04 03:35:14;;;;;;;0.20;0.20;;;;;;;9.88;100.00;100809.53;5013741;28;20053;-81
2021/10/04 03:37:48;;;;;;;0.20;0.20;;;;;;;9.87;100.00;100811.47;5031646;28;20049;-81
2021/10/04 03:40:23;;;;;;;0.10;0.10;;;;;;;9.90;100.00;100809.28;5014771;28;20058;-81
2021/10/04 03:42:56;;;;;;;0.20;0.20;;;;;;;9.86;100.00;100800.88;5014831;28;20057;-82
2021/10/04 03:45:30;;;;;;;0.20;0.20;;;;;;;9.84;100.00;100813.91;5014545;28;20049;-81
2021/10/04 03:48:03;;;;;;;0.20;0.20;;;;;;;9.84;100.00;100819.34;5026693;28;20045;-81
2021/10/04 03:50:37;;;;;;;0.30;0.30;;;;;;;9.85;100.00;100820.97;5031066;28;20061;-81
2021/10/04 03:53:10;;;;;;;0.20;0.20;;;;;;;9.80;100.00;100824.47;5032458;28;20045;-81
2021/10/04 03:55:45;;;;;;;0.20;0.20;;;;;;;9.75;100.00;100821.78;5024556;28;20421;-81
2021/10/04 03:58:18;;;;;;;0.20;0.20;;;;;;;9.82;100.00;100824.25;5032182;28;20055;-81
2021/10/04 04:00:51;;;;;;;0.20;0.20;;;;;;;9.81;100.00;100814.44;5011142;28;20071;-81
2021/10/04 04:03:19;;;;;;;0.20;0.20;;;;;;;9.82;100.00;100819.59;5012296;28;20049;-82
2021/10/04 04:05:47;;;;;;;0.20;0.20;;;;;;;9.83;100.00;100817.69;5015536;28;20057;-81
2021/10/04 04:08:21;;;;;;;0.10;0.10;;;;;;;9.70;100.00;100802.75;5013718;28;20064;-81
2021/10/04 04:10:56;;;;;;;0.20;0.20;;;;;;;9.83;100.00;100814.97;5014121;28;20056;-82
2021/10/04 04:13:30;;;;;;;0.20;0.20;;;;;;;9.79;100.00;100808.44;5032390;28;20045;-81
2021/10/04 04:15:58;;;;;;;0.20;0.20;;;;;;;9.74;100.00;100828.28;5017858;28;20041;-81
2021/10/04 04:18:31;;;;;;;0.20;0.20;;;;;;;9.79;100.00;100825.59;5018160;28;20410;-80
2021/10/04 04:21:04;;;;;;;0.10;0.10;;;;;;;9.85;100.00;100829.13;5016857;28;20516;-81
2021/10/04 04:23:38;;;;;;;0.20;0.20;;;;;;;9.76;100.00;100823.41;5018164;28;20061;-82
2021/10/04 04:26:07;;;;;;;0.20;0.20;;;;;;;9.77;100.00;100835.09;5035756;28;20049;-83
2021/10/04 04:28:42;;;;;;;0.20;0.20;;;;;;;9.78;100.00;100836.75;5018154;28;20053;-81
2021/10/04 04:31:11;;;;;;;0.20;0.20;;;;;;;9.74;100.00;100841.09;5012280;28;20049;-82
2021/10/04 04:33:39;;;;;;;0.30;0.30;;;;;;;9.68;100.00;100837.50;5017903;28;20045;-80
2021/10/04 04:36:12;;;;;;;0.20;0.20;;;;;;;9.70;100.00;100855.19;5036213;28;20045;-81
2021/10/04 04:38:45;;;;;;;0.20;0.20;;;;;;;9.72;100.00;100856.81;5018434;28;20417;-81
2021/10/04 04:41:21;;;;;;;0.10;0.10;;;;;;;9.66;100.00;100854.09;5018352;28;20053;-81
2021/10/04 04:43:54;;;;;;;0.20;0.20;;;;;;;9.68;100.00;100853.81;5018195;28;20045;-82
2021/10/04 04:46:23;;;;;;;0.20;0.20;;;;;;;9.58;100.00;100856.53;5014007;28;20049;-81
2021/10/04 04:48:56;;;;;;;0.20;0.20;;;;;;;9.67;100.00;100876.66;5035653;28;20049;-81
2021/10/04 04:51:32;;;;;;;0.20;0.20;;;;;;;9.65;100.00;100879.66;5017207;28;20056;-81
2021/10/04 04:54:01;;;;;;;0.20;0.20;;;;;;;9.69;100.00;100885.34;5017584;28;20057;-81
2021/10/04 04:56:36;;;;;;;0.10;0.10;;;;;;;9.66;100.00;100878.53;5017275;28;20515;-80
2021/10/04 04:59:09;;;;;;;0.20;0.20;;;;;;;9.68;100.00;100881.00;5017015;28;20056;-82
2021/10/04 05:01:44;;;;;;;0.20;0.20;;;;;;;9.63;100.00;100886.44;5034159;28;20493;-81
2021/10/04 05:04:18;;;;;;;0.20;0.20;;;;;;;9.62;100.00;100890.22;5004209;28;20049;-81
2021/10/04 05:06:51;;;;;;;0.20;0.20;;;;;;;9.61;100.00;100884.00;5014390;28;20501;-81
2021/10/04 05:09:24;;;;;;;0.20;0.20;;;;;;;9.56;100.00;100883.16;5015762;28;20050;-80
2021/10/04 05:11:53;;;;;;;0.20;0.20;;;;;;;9.50;100.00;100887.75;5016714;28;20565;-80
2021/10/04 05:14:27;;;;;;;0.20;0.20;;;;;;;9.54;100.00;100894.28;5033263;28;20045;-81
2021/10/04 05:16:55;;;;;;;0.20;0.20;;;;;;;9.49;100.00;100883.41;5026621;28;20061;-81
2021/10/04 05:19:28;;;;;;;0.20;0.20;;;;;;;9.49;100.00;100883.41;5017150;28;20061;-81
2021/10/04 05:22:55;;;;;;;0.10;0.10;;;;;;;9.56;100.00;100899.47;5013970;28;20050;-82
2021/10/04 05:25:28;;;;;;;0.20;0.20;;;;;;;9.55;100.00;100900.53;5019595;28;20060;-82
2021/10/04 05:28:03;;;;;;;0.20;0.20;;;;;;;9.49;100.00;100895.09;5011073;28;20422;-81
2021/10/04 05:30:36;;;;;;;0.15;0.15;;;;;;;9.53;100.00;100904.34;5028107;28;20041;-82
2021/10/04 05:33:09;;;;;;;0.30;0.30;;;;;;;9.53;100.00;100911.69;5012301;28;20052;-82
2021/10/04 05:35:42;;;;;;;0.20;0.20;;;;;;;9.47;100.00;100907.31;5016474;28;20064;-82
2021/10/04 05:38:23;;;;;;;0.20;0.20;;;;;;;9.56;100.00;100921.22;5023848;28;20060;-81
2021/10/04 05:40:57;;;;;;;0.20;0.20;;;;;;;9.56;100.00;100905.72;5034684;28;20386;-81
2021/10/04 05:43:32;;;;;;;0.40;0.30;;;;;;;9.57;100.00;100910.06;5016297;28;20057;-83
2021/10/04 05:46:05;;;;;;;0.22;0.22;;;;;;;9.63;100.00;100927.19;5024343;28;20041;-81
2021/10/04 05:48:38;;;;;;;0.20;0.20;;;;;;;9.61;100.00;100929.34;5016311;28;20493;-81
2021/10/04 05:52:05;;;;;;;0.20;0.20;;;;;;;9.66;100.00;100921.22;5034768;28;20049;-81
2021/10/04 05:54:38;;;;;;;0.30;0.30;;;;;;;9.66;100.00;100913.88;5034704;28;20049;-82
2021/10/04 05:57:11;;;;;;;0.20;0.20;;;;;;;9.69;100.00;100917.97;5016326;28;20049;-81
2021/10/04 05:59:46;;;;;;;0.20;0.20;;;;;;;9.65;100.00;100908.72;5016751;28;20064;-81
2021/10/04 06:02:19;;;;;;;0.35;0.25;;;;;;;9.69;100.00;100898.94;5032249;28;20045;-81
2021/10/04 06:04:52;;;;;;;0.20;0.20;;;;;;;9.72;100.00;100903.84;5014887;28;20054;-81
2021/10/04 06:07:20;;;;;;;0.20;0.20;;;;;;;9.78;100.00;100913.66;5025337;28;20072;-82
2021/10/04 06:09:53;;;;;;;0.17;0.17;;;;;;;9.80;100.00;100914.19;5027101;28;20061;-81
2021/10/04 06:12:26;;;;;;;0.20;0.20;;;;;;;9.81;100.00;100907.66;5009449;28;20061;-81
2021/10/04 06:14:57;;;;;;;0.20;0.20;;;;;;;9.92;100.00;100915.84;5022808;28;20053;-83
2021/10/04 06:17:30;;;;;;;0.20;0.20;;;;;;;9.93;100.00;100914.75;5026482;28;20053;-83
2021/10/04 06:20:06;;;;;;;0.30;0.30;;;;;;;9.91;100.00;100912.31;5025424;28;20056;-82
2021/10/04 06:22:39;;;;;;;0.20;0.20;;;;;;;9.90;100.00;100909.84;5028794;28;20064;-82
2021/10/04 06:25:10;;;;;;;0.20;0.20;;;;;;;9.97;100.00;100921.28;5012822;28;20057;-83
2021/10/04 06:27:45;;;;;;;0.20;0.20;;;;;;;10.01;100.00;100922.38;5026728;28;21001;-84
2021/10/04 06:30:16;;;;;;;0.20;0.20;;;;;;;10.03;100.00;100928.38;5024625;28;20041;-83
2021/10/04 06:32:49;;;;;;;0.20;0.20;;;;;;;10.08;100.00;100936.53;5020988;28;20039;-82
2021/10/04 06:35:25;;;;;;;0.20;0.20;;;;;;;10.09;100.00;100932.72;5021389;28;20049;-83
2021/10/04 06:38:00;;;;;;;0.20;0.20;;;;;;;10.08;100.00;100935.72;5020983;28;20053;-83
2021/10/04 06:41:03;;;;;;;0.20;0.20;;;;;;;10.19;100.00;100946.34;5004160;28;20049;-82
2021/10/04 06:43:31;;;;;;;0.20;0.20;;;;;;;10.23;100.00;100960.19;5006807;28;20494;-82
2021/10/04 06:46:07;;;;;;;0.20;0.20;;;;;;;10.21;100.00;100954.22;5006276;28;20053;-84
2021/10/04 06:48:41;;;;;;;0.20;0.20;;;;;;;10.22;100.00;100977.63;5008752;28;20061;-85
2021/10/04 06:51:15;;;;;;;0.20;0.20;;;;;;;10.20;100.00;100958.84;5006683;28;20068;-82
2021/10/04 06:53:43;;;;;;;0.20;0.20;;;;;;;10.28;100.00;100968.38;5002132;28;20049;-84
2021/10/04 06:56:11;;;;;;;0.20;0.20;;;;;;;10.33;100.00;100968.38;5019262;28;21281;-86
2021/10/04 06:58:49;;;;;;;0.20;0.20;;;;;;;10.33;100.00;100967.53;5000431;28;20076;-83
2021/10/04 07:01:20;;;;;;;0.20;0.20;;;;;;;10.35;100.00;100976.28;5002355;28;20076;-83
2021/10/04 07:03:57;;;;;;;0.20;0.20;;;;;;;10.29;100.00;100980.06;5013101;28;20057;-84
2021/10/04 07:06:31;;;;;;;0.30;0.30;;;;;;;10.35;100.00;100987.97;5002182;28;20049;-83
2021/10/04 07:09:04;;;;;;;0.20;0.20;;;;;;;10.34;100.00;100989.09;5014265;28;20068;-84
2021/10/04 07:11:32;;;;;;;0.30;0.30;;;;;;;10.36;100.00;101003.22;5014499;28;20056;-84
2021/10/04 07:14:05;;;;;;;0.20;0.20;;;;;;;10.33;100.00;100995.59;5016570;28;20049;-83
2021/10/04 07:16:40;;;;;;;0.20;0.20;;;;;;;10.41;100.00;101010.56;5019451;28;20045;-82
2021/10/04 07:19:13;;;;;;;0.20;0.20;;;;;;;10.46;100.00;101001.63;5016252;28;20049;-81
2021/10/04 07:21:59;;;;;;;0.20;0.20;;;;;;;10.52;100.00;100995.06;4994677;28;20049;-82
2021/10/04 07:24:32;;;;;;;0.20;0.20;;;;;;;10.53;100.00;100996.72;5013230;28;20068;-83
2021/10/04 07:27:33;;;;;;;0.17;0.17;;;;;;;10.54;100.00;101001.06;5015005;28;20605;-83
2021/10/04 07:30:12;;;;;;;0.20;0.20;;;;;;;10.60;100.00;101008.13;4998656;28;20493;-83
2021/10/04 07:32:47;;;;;;;0.20;0.20;;;;;;;10.61;100.00;101014.41;5017762;28;20041;-84
2021/10/04 07:35:29;;;;;;;0.20;0.20;;;;;;;10.64;100.00;101011.94;5014033;28;20061;-84
2021/10/04 07:37:59;;;;;;;0.20;0.20;;;;;;;10.76;100.00;101019.84;5013866;28;20046;-82
2021/10/04 07:40:34;;;;;;;0.20;0.20;;;;;;;10.85;100.00;101017.38;4994984;28;20056;-83
2021/10/04 07:43:08;;;;;;;0.30;0.30;;;;;;;10.91;100.00;101031.81;5013652;28;20050;-84
2021/10/04 07:45:42;;;;;;;0.20;0.20;;;;;;;11.00;100.00;101041.88;5014717;28;20528;-83
2021/10/04 07:48:17;;;;;;;0.20;0.20;;;;;;;11.04;100.00;101050.34;4993579;28;20053;-81
2021/10/04 07:50:50;;;;;;;0.17;0.17;;;;;;;11.04;100.00;101048.41;4999846;28;20057;-84
2021/10/04 07:53:24;;;;;;;0.20;0.20;;;;;;;11.17;100.00;101049.78;4995402;28;20049;-84
2021/10/04 07:55:57;;;;;;;0.20;0.20;;;;;;;11.20;100.00;101056.59;4993457;28;20049;-82
2021/10/04 07:58:31;;;;;;;0.20;0.20;;;;;;;11.19;100.00;101050.31;5008325;28;20069;-83
2021/10/04 08:01:04;;;;;;;0.20;0.20;;;;;;;11.26;100.00;101060.94;4996684;28;20053;-86
2021/10/04 08:03:41;;;;;;;0.20;0.20;;;;;;;11.35;100.00;101053.84;4997043;28;20535;-83
2021/10/04 08:06:09;;;;;;;0.30;0.30;;;;;;;11.30;99.53;101053.03;4992634;28;20057;-83
2021/10/04 08:08:42;;;;;;;0.22;0.22;;;;;;;11.33;100.00;101066.09;4995087;28;20053;-84
2021/10/04 08:11:16;;;;;;;0.20;0.20;;;;;;;11.46;100.00;101070.16;4994601;28;20061;-83
2021/10/04 08:13:45;;;;;;;0.20;0.20;;;;;;;11.43;99.56;101067.97;5008240;28;20060;-84
2021/10/04 08:16:21;;;;;;;0.20;0.20;;;;;;;11.45;100.00;101058.44;5012786;28;20049;-84
2021/10/04 08:18:56;;;;;;;0.20;0.20;;;;;;;11.57;100.00;101061.69;5014954;28;20050;-82
2021/10/04 08:21:56;;;;;;;0.20;0.20;;;;;;;11.64;100.00;101063.28;4989345;28;20053;-83
2021/10/04 08:24:30;;;;;;;0.20;0.20;;;;;;;11.68;100.00;101062.47;4992663;28;20052;-82
2021/10/04 08:26:58;;;;;;;0.38;0.20;;;;;;;11.69;97.66;101066.00;4994063;28;20922;-84
2021/10/04 08:29:27;;;;;;;0.20;0.20;;;;;;;11.52;98.14;101039.88;5010299;28;20076;-82
2021/10/04 08:31:56;;;;;;;0.20;0.20;;;;;;;11.83;98.60;101068.94;4990996;28;20079;-83
2021/10/04 08:34:30;;;;;;;0.30;0.30;;;;;;;11.92;98.17;101061.81;5013781;28;20036;-83
2021/10/04 08:37:04;;;;;;;0.20;0.20;;;;;;;11.99;98.01;101053.38;5006998;28;20061;-82
2021/10/04 08:39:32;;;;;;;0.20;0.20;;;;;;;12.11;99.46;101053.03;5014275;28;20632;-85
2021/10/04 08:42:01;;;;;;;0.20;0.20;;;;;;;12.10;97.98;101054.97;5017084;28;20057;-83
2021/10/04 08:44:31;;;;;;;0.17;0.17;;;;;;;12.18;97.43;101064.44;4993500;28;20053;-82
2021/10/04 08:46:59;;;;;;;0.25;0.20;;;;;;;12.22;97.48;101063.63;4993952;28;20056;-85
2021/10/04 08:49:29;;;;;;;0.20;0.20;;;;;;;12.17;97.27;101030.91;4992622;28;20053;-83
2021/10/04 08:52:04;;;;;;;0.22;0.22;;;;;;;12.22;96.54;101040.97;5011261;28;20056;-84
2021/10/04 08:54:38;;;;;;;0.20;0.20;;;;;;;12.20;98.10;101043.97;5009120;28;20053;-83
2021/10/04 08:57:12;;;;;;;0.20;0.20;;;;;;;12.25;98.20;101043.94;4991938;28;20061;-85
2021/10/04 08:59:40;;;;;;;0.40;0.20;;;;;;;12.17;96.82;101021.91;4997589;28;20061;-84
2021/10/04 09:02:21;;;;;;;0.20;0.20;;;;;;;12.19;95.32;101036.06;5010536;28;20653;-83
2021/10/04 09:05:10;;;;;;;0.20;0.20;;;;;;;12.35;98.19;101040.34;5019125;28;20046;-82
2021/10/04 09:07:47;;;;;;;0.20;0.20;;;;;;;12.36;93.26;101044.72;4996251;28;20060;-82
2021/10/04 09:10:23;;;;;;;0.57;0.30;;;;;;;12.42;95.52;101050.94;5014556;28;20049;-83
2021/10/04 09:12:54;;;;;;;0.30;0.20;;;;;;;12.44;94.90;101053.38;4994359;28;20057;-84
2021/10/04 09:15:35;;;;;;;0.20;0.20;;;;;;;12.42;95.81;101061.88;5017869;28;20059;-84
2021/10/04 09:18:06;;;;;;;0.15;0.15;;;;;;;12.38;95.38;101066.25;5012288;28;20060;-83
2021/10/04 09:20:51;;;;;;;0.20;0.20;;;;;;;12.32;96.12;101056.44;5012468;28;21532;-84
2021/10/04 09:23:33;;;;;;;0.28;0.28;;;;;;;12.57;94.50;101071.88;5017009;28;20065;-84
2021/10/04 09:26:08;;;;;;;0.30;0.30;;;;;;;12.48;94.43;101068.09;4999662;28;20056;-83
2021/10/04 09:28:44;;;;;;;0.20;0.20;;;;;;;12.56;94.88;101068.31;5010936;28;20053;-83
2021/10/04 09:31:23;;;;;;;0.20;0.20;;;;;;;12.68;92.94;101073.41;5016054;28;20406;-84
2021/10/04 09:34:15;;;;;;;0.20;0.20;;;;;;;12.71;94.49;101072.84;5014688;28;21547;-83
2021/10/04 09:36:50;;;;;;;0.30;0.30;;;;;;;12.79;92.71;101063.25;4994871;28;20679;-84
2021/10/04 09:39:27;;;;;;;0.55;0.55;;;;;;;12.86;94.65;101049.25;5013698;28;20045;-82
2021/10/04 09:42:03;;;;;;;0.20;0.20;;;;;;;12.92;92.75;101051.63;4998237;28;20057;-82
2021/10/04 09:45:01;;;;;;;0.20;0.20;;;;;;;13.04;93.09;101058.66;5009935;28;20061;-82
2021/10/04 09:47:36;;;;;;;0.30;0.30;;;;;;;13.13;94.65;101054.19;4989244;28;20060;-82
2021/10/04 09:50:11;;;;;;;0.20;0.20;;;;;;;13.06;93.93;101061.91;5008874;28;20053;-82
2021/10/04 09:52:47;;;;;;;0.13;0.13;;;;;;;13.07;95.14;101075.28;5013005;28;20053;-83
2021/10/04 09:55:30;;;;;;;0.20;0.20;;;;;;;13.04;90.96;101062.19;4996085;28;20144;-82
2021/10/04 09:58:13;;;;;;;0.20;0.20;;;;;;;13.03;91.50;101054.28;4999201;28;20065;-83
2021/10/04 10:00:48;;;;;;;0.20;0.20;;;;;;;13.03;93.33;101070.69;5015378;28;20068;-82
2021/10/04 10:03:20;;;;;;;0.20;0.20;;;;;;;13.14;93.27;101080.41;5008696;28;20057;-82
2021/10/04 10:05:52;;;;;;;0.30;0.30;;;;;;;13.20;91.60;101068.34;4989251;28;20057;-81
2021/10/04 10:08:28;;;;;;;0.20;0.20;;;;;;;13.12;91.35;101066.25;5014670;28;20041;-82
2021/10/04 10:11:06;;;;;;;0.20;0.20;;;;;;;13.10;92.37;101060.22;4997486;28;20065;-81
2021/10/04 10:13:39;;;;;;;0.20;0.20;;;;;;;13.21;91.55;101063.69;5011236;28;20045;-82
2021/10/04 10:16:12;;;;;;;0.22;0.22;;;;;;;13.25;90.17;101060.09;5000055;28;20061;-82
2021/10/04 10:18:50;;;;;;;0.20;0.20;;;;;;;13.41;90.88;101073.66;5010486;28;20497;-82
2021/10/04 10:21:26;;;;;;;0.20;0.20;;;;;;;13.35;90.70;101059.19;4995685;28;20065;-84
2021/10/04 10:23:57;;;;;;;0.20;0.20;;;;;;;13.50;90.57;101068.34;4996603;28;20088;-84
2021/10/04 10:26:39;;;;;;;0.20;0.20;;;;;;;13.55;92.56;101076.50;4995808;28;20053;-81
2021/10/04 10:29:30;;;;;;;0.20;0.20;;;;;;;13.58;92.78;101060.31;5001284;28;20076;-83
2021/10/04 10:32:20;;;;;;;0.20;0.20;;;;;;;13.59;89.49;101059.22;5012960;28;20565;-84
2021/10/04 10:34:56;;;;;;;0.20;0.20;;;;;;;13.56;89.35;101061.72;5015607;28;21378;-82
2021/10/04 10:37:46;;;;;;;0.20;0.20;;;;;;;13.54;86.04;101066.66;5010712;28;20049;-83
2021/10/04 10:40:17;;;;;;;0.20;0.20;;;;;;;13.48;90.71;101067.81;4993276;28;20068;-82
2021/10/04 10:43:05;;;;;;;0.30;0.30;;;;;;;13.43;86.62;101057.75;5016097;28;20121;-82
2021/10/04 10:45:41;;;;;;;0.20;0.20;;;;;;;13.44;89.05;101060.19;4993795;28;20409;-83
2021/10/04 10:48:17;;;;;;;0.20;0.20;;;;;;;13.46;89.27;101062.63;4991555;28;20050;-85
2021/10/04 10:50:51;;;;;;;0.30;0.30;;;;;;;13.56;91.04;101057.06;4992548;28;20054;-85
2021/10/04 10:53:30;;;;;;;0.20;0.20;;;;;;;13.62;92.11;101068.78;5010973;28;20060;-83
2021/10/04 10:56:07;;;;;;;0.28;0.28;;;;;;;13.67;90.20;101071.44;4995784;28;20053;-82
2021/10/04 10:58:43;;;;;;;0.20;0.20;;;;;;;13.80;89.70;101080.06;4993907;28;20065;-82
2021/10/04 11:01:20;;;;;;;0.20;0.20;;;;;;;13.84;89.25;101083.84;4995131;28;20064;-83
2021/10/04 11:04:40;;;;;;;0.20;0.20;;;;;;;13.81;89.49;101085.25;4996649;28;20057;-81
2021/10/04 11:07:53;;;;;;;0.20;0.20;;;;;;;13.90;89.40;101091.69;5013982;28;20102;-82
2021/10/04 11:10:27;;;;;;;0.30;0.30;;;;;;;13.78;87.01;101072.13;5017628;28;22063;-84
2021/10/04 11:13:20;;;;;;;0.20;0.20;;;;;;;13.89;85.99;101084.59;5013284;28;20492;-81
2021/10/04 11:15:57;;;;;;;0.20;0.20;;;;;;;13.98;88.02;101092.97;5011104;28;20068;-82
2021/10/04 11:18:36;;;;;;;0.20;0.20;;;;;;;14.01;89.04;101092.38;5008048;28;20049;-82
2021/10/04 11:21:12;;;;;;;0.20;0.20;;;;;;;14.08;88.14;101092.00;4997478;28;20053;-83
2021/10/04 11:23:49;;;;;;;0.20;0.20;;;;;;;14.02;88.81;101076.78;5011555;28;20061;-84
2021/10/04 11:26:24;;;;;;;0.30;0.30;;;;;;;14.10;88.03;101095.28;5015248;28;20049;-82
2021/10/04 11:28:59;;;;;;;0.30;0.30;;;;;;;14.16;87.21;101085.88;5008756;28;20058;-82
2021/10/04 11:31:35;;;;;;;0.20;0.20;;;;;;;14.07;87.24;101085.75;5011185;28;20053;-82
2021/10/04 11:34:10;;;;;;;0.20;0.20;;;;;;;14.03;87.06;101068.28;5008686;28;20052;-83
2021/10/04 11:36:46;;;;;;;0.20;0.20;;;;;;;14.19;87.68;101090.78;4999101;28;20056;-82
2021/10/04 11:39:26;;;;;;;0.20;0.20;;;;;;;14.10;86.94;101095.28;4993854;28;20045;-82
2021/10/04 11:42:04;;;;;;;0.22;0.22;;;;;;;14.11;85.91;101089.53;5017129;28;20499;-84
2021/10/04 11:44:42;;;;;;;0.20;0.20;;;;;;;14.22;85.02;101098.38;5011373;28;20065;-83
2021/10/04 11:47:13;;;;;;;0.20;0.20;;;;;;;14.31;84.89;101100.47;4990055;28;20838;-82
2021/10/04 11:49:43;;;;;;;0.17;0.17;;;;;;;14.20;86.13;101097.88;4993696;28;20054;-82
2021/10/04 11:52:21;;;;;;;0.30;0.30;;;;;;;14.23;86.72;101091.00;4995434;28;20698;-82
2021/10/04 11:54:56;;;;;;;0.20;0.20;;;;;;;14.24;88.08;101077.03;4989019;28;20060;-82
2021/10/04 11:57:32;;;;;;;0.20;0.20;;;;;;;14.26;85.47;101088.47;4997125;28;20056;-83